NEOK1: Neosho R at Neosho Rapids, KS

                                SHEF ID:       NEOK1     NEOSHO R AT NEOSHO RAPIDS, KS
STATION TYPE:

STAGE RIV-FLOW BAT-LOAD
ft cfs volt
Ccp-Rev Ccp-Rev Ccp-Rev
(America/Chicago)
02/21 00:00 9.06 5044 12.36
02/21 01:00 9.04 5029 12.34
02/21 02:00 9.00 4998 12.31
02/21 03:00 8.99 4990 12.27
02/21 04:00 8.97 4975 12.23
02/21 05:00 8.97 4975 12.20
02/21 06:00 8.96 4967 12.17
02/21 07:00 8.94 4952 12.15
02/21 08:00 8.93 4944 12.15
02/21 09:00 8.91 4929 12.37
02/21 10:00 8.89 4913 13.34
02/21 11:00 8.88 4906 13.40
02/21 12:00 8.86 4890 13.34
02/21 13:00 8.84 4875 13.20
02/21 14:00 8.83 4867 13.11
02/21 15:00 8.81 4852 13.03
02/21 16:00 8.80 4844 12.99
02/21 17:00 8.79 4837 12.89
02/21 18:00 8.78 4829 12.85
02/21 19:00 8.76 4814 12.57
02/21 20:00 8.75 4806 12.50
02/21 21:00 8.74 4799 12.46
02/21 22:00 8.73 4791 12.42
02/21 23:00 8.72 4783 12.39
Data processed at Sun 22Feb2026 05:36 GMT

NOTICE: If you are parsing this page

Please convert to using our Data API. Starting early 2026 we will be migrating to: https://water.usace.army.mil with modern pages rendered in JavaScript. When this migration completes you will no longer be able to scrape this page! CWMSDataAPI (CDA)

Timeseries IDs (TSIDs)

TSIDs used from left to right in the data table
NEOR.Stage.Inst.1Hour.0.Ccp-Rev
NEOR.Flow.Inst.1Hour.0.Ccp-Rev
NEOR.Volt-Battery Load.Inst.1Hour.0.Ccp-Rev

                            

All information presented herein is the property of the government of the United States of America and may be revised or deleted at any time without prior notice. Dissemination of this information without the expressed written consent of the Public Affairs Office, Tulsa District U.S. Army Corps of Engineers is strictly prohibited. These data are gathered electronically and, as presented, have NOT undergone any form of quality control. These data are NOT guaranteed to be valid or correct.